createdAt,value
2018-12-07T00:01:50.739Z,18.20
2018-12-07T00:06:53.937Z,18.20
2018-12-07T00:11:57.279Z,18.20
2018-12-07T00:17:00.501Z,18.10
2018-12-07T00:22:03.694Z,18.10
2018-12-07T00:27:06.983Z,18.10
2018-12-07T00:32:10.105Z,18.00
2018-12-07T00:37:13.335Z,18.00
2018-12-07T00:42:16.558Z,18.00
2018-12-07T00:47:19.711Z,17.90
2018-12-07T00:52:22.885Z,17.90
2018-12-07T00:57:26.130Z,17.90
2018-12-07T01:02:29.454Z,17.90
2018-12-07T01:07:32.639Z,17.90
2018-12-07T01:12:35.850Z,17.80
2018-12-07T01:17:39.106Z,17.80
2018-12-07T01:22:42.437Z,17.80
2018-12-07T01:27:45.636Z,17.80
2018-12-07T01:32:48.817Z,17.80
2018-12-07T01:37:52.296Z,17.70
2018-12-07T01:42:55.521Z,17.70
2018-12-07T01:47:58.725Z,17.70
2018-12-07T01:53:01.992Z,17.70
2018-12-07T01:58:05.448Z,17.70
2018-12-07T02:03:08.604Z,17.70
2018-12-07T02:08:11.805Z,17.60
2018-12-07T02:13:15.206Z,17.60
2018-12-07T02:18:18.424Z,17.60
2018-12-07T02:23:21.626Z,17.60
2018-12-07T02:28:24.838Z,17.50
2018-12-07T02:33:28.048Z,17.60
2018-12-07T02:38:31.259Z,17.50
2018-12-07T02:43:34.515Z,17.50
2018-12-07T02:48:37.776Z,17.50
2018-12-07T02:53:40.955Z,17.50
2018-12-07T02:58:44.422Z,17.50
2018-12-07T03:03:47.629Z,17.40
2018-12-07T03:08:50.891Z,17.50
2018-12-07T03:13:54.069Z,17.50
2018-12-07T03:18:57.208Z,17.50
2018-12-07T03:24:00.611Z,17.40
2018-12-07T03:29:03.826Z,17.40
2018-12-07T03:34:06.992Z,17.40
2018-12-07T03:39:10.202Z,17.40
2018-12-07T03:44:13.454Z,17.40
2018-12-07T03:49:16.764Z,17.40
2018-12-07T03:54:19.976Z,17.40
2018-12-07T03:59:24.411Z,17.40
2018-12-07T04:04:27.594Z,17.30
2018-12-07T04:09:30.849Z,17.30
2018-12-07T04:14:34.309Z,17.30
2018-12-07T04:19:37.492Z,17.30
2018-12-07T04:24:40.904Z,17.30
2018-12-07T04:29:44.055Z,17.30
2018-12-07T04:34:47.224Z,17.30
2018-12-07T04:39:50.643Z,17.30
2018-12-07T04:44:53.893Z,17.30
2018-12-07T04:49:57.064Z,17.30
2018-12-07T04:55:00.276Z,17.30
2018-12-07T05:00:03.659Z,17.20
2018-12-07T05:05:06.812Z,17.20
2018-12-07T05:10:10.005Z,17.20
2018-12-07T05:15:13.196Z,17.20
2018-12-07T05:20:16.483Z,17.20
2018-12-07T05:25:19.634Z,17.20
2018-12-07T05:30:22.779Z,17.40
2018-12-07T05:35:26.089Z,17.70
2018-12-07T05:40:29.581Z,17.90
2018-12-07T05:45:35.309Z,18.10
2018-12-07T05:50:38.566Z,18.30
2018-12-07T05:55:41.784Z,18.60
2018-12-07T06:00:45.100Z,18.80
2018-12-07T06:05:48.521Z,19.00
2018-12-07T06:10:51.770Z,19.20
2018-12-07T06:15:55.100Z,19.40
2018-12-07T06:20:58.347Z,19.70
2018-12-07T06:26:01.868Z,19.80
2018-12-07T06:31:05.323Z,19.90
2018-12-07T06:36:08.637Z,20.10
2018-12-07T06:41:11.943Z,20.30
2018-12-07T06:46:15.294Z,20.50
2018-12-07T06:51:18.442Z,20.60
2018-12-07T06:56:21.811Z,20.70
2018-12-07T07:01:25.125Z,20.80
2018-12-07T07:06:28.623Z,20.90
2018-12-07T07:11:31.920Z,20.90
2018-12-07T07:16:35.120Z,21.00
2018-12-07T07:21:38.431Z,21.00
2018-12-07T07:26:41.909Z,20.90
2018-12-07T07:31:45.304Z,20.90
2018-12-07T07:36:48.617Z,20.70
2018-12-07T07:41:51.876Z,20.60
2018-12-07T07:46:55.173Z,20.40
2018-12-07T07:51:58.395Z,20.30
2018-12-07T07:57:01.769Z,20.10
2018-12-07T08:02:05.311Z,20.10
2018-12-07T08:07:08.615Z,20.00
2018-12-07T08:12:12.109Z,19.90
2018-12-07T08:17:16.902Z,19.90
2018-12-07T08:22:20.345Z,19.90
2018-12-07T08:27:23.883Z,19.90
2018-12-07T08:32:27.409Z,19.90
2018-12-07T08:37:30.681Z,19.90
2018-12-07T08:42:33.925Z,20.00
2018-12-07T08:47:37.145Z,20.10
2018-12-07T08:52:40.321Z,20.20
2018-12-07T08:57:43.594Z,20.40
2018-12-07T09:02:46.849Z,20.40
2018-12-07T09:07:50.147Z,20.30
2018-12-07T09:12:53.398Z,20.20
2018-12-07T09:17:56.655Z,20.10
2018-12-07T09:22:59.909Z,20.10
2018-12-07T09:28:03.125Z,20.10
2018-12-07T09:33:06.391Z,20.10
2018-12-07T09:38:13.102Z,20.10
2018-12-07T09:43:16.169Z,20.10
2018-12-07T09:48:19.440Z,20.10
2018-12-07T09:53:22.738Z,20.10
2018-12-07T09:58:25.989Z,20.10
2018-12-07T10:03:29.243Z,20.00
2018-12-07T10:08:32.483Z,20.00
2018-12-07T10:13:35.789Z,20.00
2018-12-07T10:18:39.377Z,20.00
2018-12-07T10:23:43.010Z,20.10
2018-12-07T10:28:47.127Z,20.10
2018-12-07T10:33:50.891Z,20.10
2018-12-07T10:38:54.203Z,20.10
2018-12-07T10:43:57.624Z,20.10
2018-12-07T10:49:00.920Z,20.10
2018-12-07T10:54:04.222Z,20.00
2018-12-07T10:59:07.550Z,20.00
2018-12-07T11:04:16.250Z,20.00
2018-12-07T11:09:24.901Z,20.00
2018-12-07T11:14:33.604Z,20.10
2018-12-07T11:19:42.374Z,20.10
2018-12-07T11:24:51.048Z,20.20
2018-12-07T11:29:59.763Z,20.10
2018-12-07T11:35:08.016Z,20.10
2018-12-07T11:40:11.331Z,20.10
2018-12-07T11:45:14.689Z,20.10
2018-12-07T11:50:17.945Z,20.00
2018-12-07T11:55:21.540Z,20.10
2018-12-07T12:00:24.936Z,20.20
2018-12-07T12:05:28.197Z,20.20
2018-12-07T12:10:31.458Z,20.10
2018-12-07T12:15:34.763Z,20.20
2018-12-07T12:20:38.345Z,20.10
2018-12-07T12:25:41.687Z,20.10
2018-12-07T12:30:44.929Z,20.10
2018-12-07T13:07:31.573Z,20.40
2018-12-07T13:12:35.048Z,20.40
2018-12-07T13:17:38.395Z,20.50
2018-12-07T13:22:41.897Z,20.60
2018-12-07T13:27:45.309Z,20.60
2018-12-07T13:32:48.666Z,20.60
2018-12-07T13:37:52.008Z,20.60
2018-12-07T13:42:55.849Z,20.60
2018-12-07T13:47:59.473Z,20.60
2018-12-07T13:53:02.918Z,20.50
2018-12-07T13:58:07.012Z,20.50
2018-12-07T14:03:10.461Z,20.50
2018-12-07T14:08:13.960Z,20.50
2018-12-07T14:13:17.676Z,20.40
2018-12-07T14:18:21.480Z,20.40
2018-12-07T14:23:25.247Z,20.30
2018-12-07T14:28:28.721Z,20.30
2018-12-07T14:33:32.271Z,20.40
2018-12-07T14:38:36.070Z,20.60
2018-12-07T14:43:39.584Z,20.70
2018-12-07T14:48:43.234Z,20.70
2018-12-07T14:53:46.798Z,20.70
2018-12-07T14:58:50.301Z,20.70
2018-12-07T15:03:54.382Z,20.70
2018-12-07T15:08:57.876Z,20.60
2018-12-07T15:14:01.698Z,20.60
2018-12-07T15:19:05.281Z,20.60
2018-12-07T15:24:08.854Z,20.50
2018-12-07T15:29:12.187Z,20.50
2018-12-07T15:34:15.696Z,20.50
2018-12-07T15:39:19.340Z,20.50
2018-12-07T15:44:22.765Z,20.50
2018-12-07T15:49:26.159Z,20.50
2018-12-07T15:54:29.381Z,20.50
2018-12-07T15:59:34.737Z,20.50
2018-12-07T16:04:38.235Z,20.40
2018-12-07T16:09:42.024Z,20.40
2018-12-07T16:14:45.670Z,20.50
2018-12-07T16:19:49.068Z,20.60
2018-12-07T16:24:52.728Z,20.70
2018-12-07T16:29:56.565Z,20.70
2018-12-07T16:35:00.141Z,20.80
2018-12-07T16:40:03.892Z,20.80
2018-12-07T16:45:07.290Z,20.80
2018-12-07T16:50:10.616Z,20.70
2018-12-07T16:55:14.496Z,20.60
2018-12-07T17:00:18.290Z,20.60
2018-12-07T17:05:22.152Z,20.70
2018-12-07T17:10:25.682Z,20.80
2018-12-07T17:15:29.050Z,20.80
2018-12-07T17:20:32.367Z,20.80
2018-12-07T17:25:35.940Z,20.80
2018-12-07T17:30:39.331Z,20.90
2018-12-07T17:35:43.095Z,20.80
2018-12-07T17:40:46.446Z,20.70
2018-12-07T17:45:50.020Z,20.70
2018-12-07T17:50:54.045Z,20.60
2018-12-07T17:55:57.479Z,20.60
2018-12-07T18:01:04.026Z,20.60
2018-12-07T18:06:07.840Z,20.60
2018-12-07T18:11:11.395Z,20.60
2018-12-07T18:16:14.977Z,20.70
2018-12-07T18:21:18.531Z,20.80
2018-12-07T18:26:22.070Z,20.80
2018-12-07T18:31:25.600Z,20.80
2018-12-07T18:36:29.332Z,20.70
2018-12-07T18:41:32.975Z,20.80
2018-12-07T18:46:36.780Z,20.70
2018-12-07T18:51:40.302Z,20.60
2018-12-07T18:56:44.056Z,20.60
2018-12-07T19:01:47.638Z,20.50
2018-12-07T19:06:51.533Z,20.40
2018-12-07T19:11:55.382Z,20.40
2018-12-07T19:16:59.048Z,20.30
2018-12-07T19:22:02.493Z,20.30
2018-12-07T19:27:05.834Z,20.20
2018-12-07T19:32:09.457Z,20.20
2018-12-07T19:37:14.209Z,20.10
2018-12-07T19:42:17.809Z,20.10
2018-12-07T19:47:21.321Z,20.00
2018-12-07T19:52:24.872Z,20.00
2018-12-07T19:57:28.358Z,19.90
2018-12-07T20:02:31.629Z,19.80
2018-12-07T20:07:35.286Z,19.80
2018-12-07T20:12:38.964Z,19.80
2018-12-07T20:17:42.328Z,19.70
2018-12-07T20:22:45.894Z,19.70
2018-12-07T20:27:49.513Z,19.60
2018-12-07T20:32:53.074Z,19.60
2018-12-07T20:37:57.192Z,19.60
2018-12-07T20:43:01.860Z,19.60
2018-12-07T20:48:05.617Z,19.50
2018-12-07T20:53:09.606Z,19.40
2018-12-07T20:58:13.525Z,19.40
2018-12-07T21:03:17.186Z,19.60
2018-12-07T21:08:46.397Z,19.80
2018-12-07T21:14:35.857Z,19.90
2018-12-07T21:19:43.860Z,19.90
2018-12-07T21:24:47.725Z,19.90
2018-12-07T21:30:15.187Z,19.90
2018-12-07T21:35:18.895Z,19.90
2018-12-07T21:40:26.342Z,19.90
2018-12-07T21:45:29.846Z,19.80
2018-12-07T21:50:33.930Z,19.80
2018-12-07T21:55:37.438Z,19.80
2018-12-07T22:00:41.371Z,19.80
2018-12-07T22:05:45.419Z,19.80
2018-12-07T22:10:49.058Z,19.70
2018-12-07T22:15:52.414Z,19.70
2018-12-07T22:20:56.055Z,19.70
2018-12-07T22:25:59.662Z,19.70
2018-12-07T22:31:03.155Z,19.70
2018-12-07T22:36:07.120Z,19.60
2018-12-07T22:41:10.770Z,19.60
2018-12-07T22:46:15.750Z,19.60
2018-12-07T22:51:23.328Z,19.50
2018-12-07T22:56:27.211Z,19.50
2018-12-07T23:01:30.459Z,19.40
2018-12-07T23:06:33.664Z,19.40
2018-12-07T23:11:36.894Z,19.50
2018-12-07T23:16:40.061Z,19.60
2018-12-07T23:21:43.366Z,19.60
2018-12-07T23:26:46.769Z,19.70
2018-12-07T23:31:49.975Z,19.70
2018-12-07T23:36:53.212Z,19.70
2018-12-07T23:41:56.680Z,19.80
2018-12-07T23:46:59.907Z,19.90
2018-12-07T23:52:12.487Z,19.90
2018-12-07T23:57:16.066Z,19.90
